Time;durP1;ratioP1;P1;durP2;ratioP2;P2;SDS_P1;SDS_P2;PMS_P1;PMS_P2;Temp;Humidity;BMP_temperature;BMP_pressure;BME280_temperature;BME280_humidity;BME280_pressure;Samples;Min_cycle;Max_cycle;Signal;HPM_P1;HPM_P2
2021/04/30 00:01:26;;;;;;;3.92;1.80;;;24.00;41.30;;;;;;4964814;28;20061;-61
2021/04/30 00:03:52;;;;;;;4.70;1.70;;;24.00;41.30;;;;;;4956228;29;20102;-61
2021/04/30 00:06:18;;;;;;;2.78;1.98;;;24.00;41.40;;;;;;4956005;29;20094;-61
2021/04/30 00:08:44;;;;;;;3.88;1.92;;;23.90;41.30;;;;;;4938834;29;20114;-61
2021/04/30 00:11:10;;;;;;;4.47;2.55;;;23.90;41.30;;;;;;4955715;29;20059;-61
2021/04/30 00:13:38;;;;;;;5.30;2.50;;;23.90;41.40;;;;;;4938525;29;20043;-62
2021/04/30 00:16:05;;;;;;;4.18;2.25;;;23.90;41.40;;;;;;4955287;28;20035;-61
2021/04/30 00:18:32;;;;;;;4.40;2.20;;;23.90;41.40;;;;;;4955895;29;20043;-61
2021/04/30 00:21:00;;;;;;;4.63;2.30;;;23.90;41.40;;;;;;4955614;29;20104;-61
2021/04/30 00:23:27;;;;;;;3.55;2.17;;;23.90;41.40;;;;;;4955597;29;20083;-61
2021/04/30 00:25:57;;;;;;;3.90;2.10;;;23.90;41.50;;;;;;4955156;29;20101;-61
2021/04/30 00:28:24;;;;;;;6.10;2.35;;;23.90;41.50;;;;;;4955564;29;20099;-61
2021/04/30 00:30:52;;;;;;;4.60;2.50;;;23.80;41.50;;;;;;4955264;29;20101;-61
2021/04/30 00:33:19;;;;;;;4.60;2.38;;;23.90;41.50;;;;;;4955244;29;20035;-61
2021/04/30 00:35:45;;;;;;;6.55;2.53;;;23.80;41.50;;;;;;4938127;29;20044;-61
2021/04/30 00:38:11;;;;;;;5.35;2.88;;;23.80;41.50;;;;;;4955012;29;20047;-62
2021/04/30 00:40:38;;;;;;;6.47;2.88;;;23.80;41.50;;;;;;4954628;29;20042;-60
2021/04/30 00:43:04;;;;;;;10.88;3.50;;;23.80;41.60;;;;;;4952960;29;20522;-61
2021/04/30 00:45:30;;;;;;;6.55;2.28;;;23.80;41.60;;;;;;4956807;29;20046;-61
2021/04/30 00:47:56;;;;;;;4.72;3.13;;;23.70;41.60;;;;;;4958184;29;20039;-61
2021/04/30 00:50:24;;;;;;;7.13;2.47;;;23.70;41.60;;;;;;4956348;29;20043;-62
2021/04/30 00:52:50;;;;;;;3.92;2.35;;;23.70;41.60;;;;;;4955375;29;20050;-61
2021/04/30 00:55:18;;;;;;;8.95;2.75;;;23.70;41.70;;;;;;4956105;29;20087;-61
2021/04/30 00:57:59;;;;;;;4.70;2.10;;;23.70;41.70;;;;;;4956882;29;20086;-61
2021/04/30 01:00:28;;;;;;;7.20;2.85;;;23.70;41.80;;;;;;4940101;29;20039;-61
2021/04/30 01:02:54;;;;;;;5.03;2.20;;;23.70;41.80;;;;;;4955585;29;20090;-62
2021/04/30 01:05:22;;;;;;;5.38;2.20;;;23.70;41.90;;;;;;4955295;29;20430;-62
2021/04/30 01:07:48;;;;;;;3.50;2.13;;;23.70;42.00;;;;;;4954963;29;20039;-61
2021/04/30 01:10:14;;;;;;;3.78;2.15;;;23.70;42.10;;;;;;4937874;29;20092;-61
2021/04/30 01:12:42;;;;;;;3.22;1.85;;;23.70;42.10;;;;;;4954937;29;20053;-61
2021/04/30 01:15:09;;;;;;;5.55;2.22;;;23.70;42.10;;;;;;4955107;29;20040;-61
2021/04/30 01:17:36;;;;;;;5.20;2.08;;;23.70;42.20;;;;;;4937658;29;20407;-62
2021/04/30 01:20:05;;;;;;;8.68;2.65;;;23.60;42.10;;;;;;4952706;29;20047;-61
2021/04/30 01:22:35;;;;;;;5.18;2.15;;;23.60;42.10;;;;;;4952962;29;20114;-61
2021/04/30 01:25:02;;;;;;;5.80;2.42;;;23.70;42.20;;;;;;4952589;28;20031;-61
2021/04/30 01:27:28;;;;;;;4.25;1.85;;;23.60;42.80;;;;;;4954369;29;20047;-61
2021/04/30 01:29:54;;;;;;;8.00;2.00;;;23.60;42.30;;;;;;4954738;29;20035;-61
2021/04/30 01:32:21;;;;;;;3.50;1.63;;;23.60;42.40;;;;;;4937269;29;20036;-61
2021/04/30 01:34:47;;;;;;;4.10;1.83;;;23.60;42.40;;;;;;4953344;29;20035;-61
2021/04/30 01:37:13;;;;;;;7.47;1.88;;;23.60;42.40;;;;;;4954565;29;20078;-62
2021/04/30 01:39:40;;;;;;;5.03;1.80;;;23.60;42.50;;;;;;4954466;29;20077;-61
2021/04/30 01:42:06;;;;;;;4.00;2.05;;;23.60;42.50;;;;;;4937366;29;20494;-60
2021/04/30 01:44:32;;;;;;;5.00;1.92;;;23.60;42.50;;;;;;4936906;29;20495;-60
2021/04/30 01:46:59;;;;;;;3.10;1.70;;;23.60;42.60;;;;;;4952022;29;20602;-59
2021/04/30 01:49:26;;;;;;;7.90;2.25;;;23.60;42.60;;;;;;4951995;29;20039;-59
2021/04/30 01:51:55;;;;;;;4.72;1.98;;;23.50;42.50;;;;;;4935411;29;20047;-60
2021/04/30 01:54:21;;;;;;;4.25;1.50;;;23.50;42.60;;;;;;4952265;29;20310;-61
2021/04/30 01:56:47;;;;;;;3.75;1.83;;;23.50;42.60;;;;;;4951800;29;20369;-60
2021/04/30 01:59:13;;;;;;;5.90;2.03;;;23.50;42.60;;;;;;4951756;29;20430;-60
2021/04/30 02:01:39;;;;;;;2.42;1.40;;;23.50;42.70;;;;;;4951781;29;20035;-61
2021/04/30 02:04:11;;;;;;;4.80;1.58;;;23.50;42.70;;;;;;4951780;29;20106;-60
2021/04/30 02:06:41;;;;;;;3.00;1.50;;;23.50;42.70;;;;;;4951885;29;20374;-61
2021/04/30 02:09:08;;;;;;;4.20;1.83;;;23.50;42.80;;;;;;4934606;29;20513;-61
2021/04/30 02:11:36;;;;;;;3.53;1.75;;;23.50;42.80;;;;;;4951459;29;20377;-61
2021/04/30 02:14:04;;;;;;;5.20;1.42;;;23.50;42.80;;;;;;4951609;29;20043;-61
2021/04/30 02:16:31;;;;;;;3.25;1.30;;;23.40;42.80;;;;;;4952806;29;20034;-60
2021/04/30 02:18:58;;;;;;;4.22;1.85;;;23.40;42.80;;;;;;4936147;29;20039;-60
2021/04/30 02:21:24;;;;;;;3.67;1.58;;;23.40;42.90;;;;;;4952589;29;20047;-61
2021/04/30 02:23:50;;;;;;;5.30;1.90;;;23.40;42.90;;;;;;4953268;29;20039;-61
2021/04/30 02:26:16;;;;;;;6.97;1.90;;;23.50;43.00;;;;;;4953638;29;20039;-61
2021/04/30 02:28:46;;;;;;;2.80;1.30;;;23.40;42.90;;;;;;4953052;29;20039;-61
2021/04/30 02:31:14;;;;;;;3.70;1.52;;;23.40;42.90;;;;;;4952278;29;20035;-60
2021/04/30 02:33:44;;;;;;;4.90;2.15;;;23.40;43.00;;;;;;4951757;29;20031;-61
2021/04/30 02:36:10;;;;;;;6.28;1.30;;;23.40;43.00;;;;;;4952122;29;20094;-60
2021/04/30 02:38:36;;;;;;;4.78;1.58;;;23.40;43.00;;;;;;4951805;28;20030;-61
2021/04/30 02:41:03;;;;;;;5.15;1.70;;;23.40;43.00;;;;;;4954525;29;20126;-61
2021/04/30 02:43:30;;;;;;;2.83;1.23;;;23.40;43.00;;;;;;4955455;29;20042;-61
2021/04/30 02:45:59;;;;;;;4.07;1.33;;;23.40;43.00;;;;;;4955261;29;20053;-61
2021/04/30 02:48:29;;;;;;;3.17;1.35;;;23.40;43.00;;;;;;4955209;29;20035;-60
2021/04/30 02:50:56;;;;;;;4.03;1.58;;;23.40;43.60;;;;;;4955939;29;20110;-61
2021/04/30 02:53:23;;;;;;;5.43;1.33;;;23.40;43.00;;;;;;4957049;29;20031;-61
2021/04/30 02:55:49;;;;;;;2.67;1.27;;;23.30;43.00;;;;;;4939834;29;20035;-61
2021/04/30 02:58:15;;;;;;;3.20;1.58;;;23.30;43.00;;;;;;4956667;29;20478;-61
2021/04/30 03:00:41;;;;;;;3.25;1.35;;;23.30;43.10;;;;;;4956717;29;20047;-60
2021/04/30 03:03:07;;;;;;;3.28;1.70;;;23.40;43.70;;;;;;4956924;29;20098;-61
2021/04/30 03:05:34;;;;;;;4.72;1.65;;;23.30;43.10;;;;;;4956615;29;20045;-61
2021/04/30 03:08:00;;;;;;;3.53;1.60;;;23.30;43.10;;;;;;4956537;29;20047;-61
2021/04/30 03:10:26;;;;;;;2.40;1.35;;;23.30;43.10;;;;;;4956657;29;20035;-61
2021/04/30 03:12:53;;;;;;;5.45;1.50;;;23.30;43.10;;;;;;4923251;28;20630;-61
2021/04/30 03:15:19;;;;;;;3.22;1.35;;;23.30;43.10;;;;;;4973969;28;20039;-61
2021/04/30 03:17:47;;;;;;;4.85;1.58;;;23.30;43.10;;;;;;4974898;28;20126;-61
2021/04/30 03:20:14;;;;;;;2.90;1.27;;;23.30;43.10;;;;;;4974452;28;20043;-61
2021/04/30 03:22:41;;;;;;;4.15;1.90;;;23.30;43.10;;;;;;4974245;28;20070;-61
2021/04/30 03:25:08;;;;;;;3.53;1.50;;;23.30;43.10;;;;;;4956320;29;20049;-62
2021/04/30 03:27:34;;;;;;;3.92;1.60;;;23.30;43.10;;;;;;4939319;29;20031;-61
2021/04/30 03:30:00;;;;;;;3.45;1.60;;;23.30;43.10;;;;;;4939373;29;20488;-61
2021/04/30 03:32:26;;;;;;;5.03;1.40;;;23.30;43.10;;;;;;4956557;29;20106;-61
2021/04/30 03:34:53;;;;;;;2.30;1.30;;;23.30;43.10;;;;;;4956685;29;20126;-61
2021/04/30 03:37:20;;;;;;;4.75;1.25;;;23.30;43.10;;;;;;4939275;29;20070;-61
2021/04/30 03:39:46;;;;;;;3.60;1.15;;;23.30;43.10;;;;;;4956340;29;20061;-61
2021/04/30 03:42:12;;;;;;;4.65;1.67;;;23.30;43.10;;;;;;4956347;29;20059;-61
2021/04/30 03:44:38;;;;;;;4.88;1.63;;;23.30;43.00;;;;;;4939090;29;20106;-62
2021/04/30 03:47:04;;;;;;;3.83;1.75;;;23.20;43.00;;;;;;4956250;29;20085;-62
2021/04/30 03:49:30;;;;;;;5.90;1.40;;;23.30;43.00;;;;;;4956197;29;20055;-62
2021/04/30 03:51:56;;;;;;;4.32;1.90;;;23.30;43.00;;;;;;4939229;29;20126;-61
2021/04/30 03:54:22;;;;;;;2.60;1.10;;;23.30;43.00;;;;;;4956176;29;20043;-61
2021/04/30 03:56:48;;;;;;;6.88;1.40;;;23.30;43.00;;;;;;4938948;29;20119;-62
2021/04/30 03:59:14;;;;;;;3.70;1.52;;;23.20;43.00;;;;;;4963985;28;20126;-61
2021/04/30 04:01:40;;;;;;;4.22;1.70;;;23.30;43.10;;;;;;4968397;28;20549;-61
2021/04/30 04:04:06;;;;;;;5.15;1.70;;;23.30;43.00;;;;;;4955921;29;20062;-61
2021/04/30 04:06:32;;;;;;;5.07;1.60;;;23.20;43.00;;;;;;4955967;29;20031;-61
2021/04/30 04:08:59;;;;;;;2.55;1.50;;;23.20;43.00;;;;;;4955693;29;20050;-61
2021/04/30 04:11:25;;;;;;;4.45;1.50;;;23.20;43.00;;;;;;4955963;29;20127;-61
2021/04/30 04:13:51;;;;;;;3.00;1.58;;;23.20;43.00;;;;;;4955600;29;20106;-61
2021/04/30 04:16:17;;;;;;;3.00;1.40;;;23.20;43.00;;;;;;4955888;29;20035;-60
2021/04/30 04:18:43;;;;;;;4.95;1.92;;;23.20;43.00;;;;;;4955949;29;20090;-60
2021/04/30 04:21:09;;;;;;;4.20;1.13;;;23.20;43.00;;;;;;4955886;29;20043;-61
2021/04/30 04:23:35;;;;;;;4.20;1.50;;;23.20;43.10;;;;;;4955775;29;20050;-61
2021/04/30 04:26:01;;;;;;;3.22;1.50;;;23.20;43.10;;;;;;4938661;29;20050;-61
2021/04/30 04:28:27;;;;;;;3.50;1.40;;;23.20;43.10;;;;;;4955442;29;20056;-60
2021/04/30 04:30:55;;;;;;;4.55;1.52;;;23.20;43.10;;;;;;4955555;29;20112;-61
2021/04/30 04:33:21;;;;;;;2.10;1.23;;;23.20;43.20;;;;;;4955369;29;20102;-60
2021/04/30 04:35:47;;;;;;;2.92;1.45;;;23.20;43.20;;;;;;4954498;29;20023;-61
2021/04/30 04:38:13;;;;;;;4.53;1.92;;;23.20;43.20;;;;;;4954649;29;20066;-60
2021/04/30 04:40:39;;;;;;;5.63;1.63;;;23.10;43.20;;;;;;4955027;29;20067;-60
2021/04/30 04:43:05;;;;;;;5.25;1.85;;;23.10;43.20;;;;;;4955021;29;20772;-60
2021/04/30 04:45:31;;;;;;;4.53;1.98;;;23.10;43.20;;;;;;4954424;29;20043;-60
2021/04/30 04:47:57;;;;;;;3.78;1.60;;;23.20;43.30;;;;;;4954466;29;20414;-60
2021/04/30 04:50:23;;;;;;;4.53;1.98;;;23.20;43.30;;;;;;4954684;29;20035;-60
2021/04/30 04:52:49;;;;;;;3.42;1.75;;;23.20;43.30;;;;;;4954557;29;20062;-60
2021/04/30 04:55:17;;;;;;;4.68;1.65;;;23.10;43.30;;;;;;4954309;29;20042;-60
2021/04/30 04:57:44;;;;;;;2.83;1.80;;;23.20;43.30;;;;;;4954192;29;20055;-60
2021/04/30 05:00:11;;;;;;;6.32;1.52;;;23.10;43.30;;;;;;4954086;29;20042;-61
2021/04/30 05:02:38;;;;;;;5.13;1.65;;;23.10;43.30;;;;;;4956100;28;20349;-61
2021/04/30 05:05:08;;;;;;;4.70;1.42;;;23.10;43.30;;;;;;4973672;28;20330;-60
2021/04/30 05:07:34;;;;;;;7.38;2.10;;;23.20;43.30;;;;;;4973462;28;20428;-61
2021/04/30 05:10:00;;;;;;;3.78;1.48;;;23.10;43.30;;;;;;4965424;28;20028;-61
2021/04/30 05:12:27;;;;;;;6.03;1.60;;;23.10;43.30;;;;;;4954396;29;20186;-60
2021/04/30 05:14:54;;;;;;;6.68;2.00;;;23.10;43.30;;;;;;4936812;29;20256;-61
2021/04/30 05:17:20;;;;;;;4.05;1.58;;;23.10;43.20;;;;;;4953824;29;20043;-60
2021/04/30 05:19:46;;;;;;;3.33;1.58;;;23.10;43.30;;;;;;4960143;28;20065;-61
2021/04/30 05:22:13;;;;;;;3.58;1.60;;;23.10;43.30;;;;;;4955014;28;20102;-61
2021/04/30 05:24:43;;;;;;;3.53;1.30;;;23.10;43.30;;;;;;4932423;29;20039;-60
2021/04/30 05:27:11;;;;;;;4.50;1.75;;;23.10;43.30;;;;;;4937046;29;20474;-61
2021/04/30 05:29:44;;;;;;;4.03;1.35;;;23.10;43.30;;;;;;4954042;29;20111;-61
2021/04/30 05:32:11;;;;;;;5.35;1.70;;;23.10;43.30;;;;;;4934561;29;20040;-62
2021/04/30 05:34:39;;;;;;;6.05;2.20;;;23.10;43.30;;;;;;4953808;29;20031;-62
2021/04/30 05:37:06;;;;;;;3.92;1.77;;;23.10;43.30;;;;;;4954486;28;20411;-61
2021/04/30 05:39:33;;;;;;;5.57;1.83;;;23.10;43.30;;;;;;4972985;28;20062;-61
2021/04/30 05:42:00;;;;;;;5.55;1.55;;;23.00;43.30;;;;;;4972970;28;20094;-62
2021/04/30 05:44:26;;;;;;;6.20;2.58;;;23.10;43.30;;;;;;4973144;28;20039;-61
2021/04/30 05:46:52;;;;;;;3.60;1.52;;;23.00;43.20;;;;;;4935591;29;20078;-61
2021/04/30 05:49:18;;;;;;;5.10;1.70;;;23.10;43.30;;;;;;4964025;28;20028;-61
2021/04/30 05:51:44;;;;;;;5.32;1.70;;;23.10;43.30;;;;;;4952743;29;20043;-61
2021/04/30 05:54:10;;;;;;;5.20;2.08;;;23.10;43.30;;;;;;4953908;29;20035;-61
2021/04/30 05:56:36;;;;;;;6.53;1.73;;;23.10;43.30;;;;;;4953926;29;20051;-61
2021/04/30 05:59:02;;;;;;;5.55;1.40;;;23.10;43.40;;;;;;4954270;29;20048;-61
2021/04/30 06:01:30;;;;;;;5.28;1.50;;;23.00;43.30;;;;;;4937271;29;20047;-60
2021/04/30 06:03:56;;;;;;;7.10;1.90;;;23.00;43.30;;;;;;4937187;29;20040;-59
2021/04/30 06:06:22;;;;;;;3.70;1.60;;;23.00;43.30;;;;;;4931624;28;20051;-60
2021/04/30 06:08:48;;;;;;;7.88;1.90;;;23.10;43.40;;;;;;4951517;28;20031;-60
2021/04/30 06:11:14;;;;;;;5.70;1.75;;;23.10;43.40;;;;;;4950360;28;20031;-60
2021/04/30 06:13:42;;;;;;;5.20;1.63;;;23.10;43.40;;;;;;4936440;29;20055;-60
2021/04/30 06:16:08;;;;;;;6.00;1.83;;;23.10;43.40;;;;;;4956926;28;20035;-60
2021/04/30 06:18:34;;;;;;;5.53;2.00;;;23.10;43.40;;;;;;4960939;28;20125;-61
2021/04/30 06:21:00;;;;;;;6.28;1.55;;;23.10;43.50;;;;;;4940001;29;20102;-60
2021/04/30 06:23:26;;;;;;;3.65;1.73;;;23.10;43.40;;;;;;4957312;29;20038;-61
2021/04/30 06:25:52;;;;;;;4.78;1.65;;;23.10;43.40;;;;;;4956921;29;20351;-60
2021/04/30 06:28:18;;;;;;;4.50;2.33;;;23.10;43.50;;;;;;4957421;29;20094;-60
2021/04/30 06:30:44;;;;;;;5.07;2.97;;;23.10;43.50;;;;;;4957319;29;20039;-60
2021/04/30 06:33:10;;;;;;;5.20;2.70;;;23.10;43.50;;;;;;4924269;29;20366;-60
2021/04/30 06:35:37;;;;;;;5.68;3.10;;;23.20;43.60;;;;;;4957191;29;20027;-60
2021/04/30 06:38:04;;;;;;;3.47;2.35;;;23.10;43.50;;;;;;4957313;29;20039;-60
2021/04/30 06:40:30;;;;;;;7.95;2.90;;;23.20;43.50;;;;;;4957233;29;20105;-60
2021/04/30 06:42:56;;;;;;;4.22;2.75;;;23.20;43.60;;;;;;4956989;29;20059;-60
2021/04/30 06:45:23;;;;;;;5.18;2.10;;;23.20;43.50;;;;;;4939682;29;20493;-60
2021/04/30 06:47:49;;;;;;;6.35;2.30;;;23.20;43.40;;;;;;4957273;29;20066;-60
2021/04/30 06:50:15;;;;;;;11.00;2.60;;;23.30;43.50;;;;;;4955166;28;20469;-60
2021/04/30 06:52:41;;;;;;;5.57;2.88;;;23.30;43.50;;;;;;4957087;29;20089;-61
2021/04/30 06:55:08;;;;;;;7.60;2.70;;;23.30;43.50;;;;;;4957042;29;20512;-61
2021/04/30 06:57:34;;;;;;;8.43;2.05;;;23.30;43.50;;;;;;4940133;29;20454;-61
2021/04/30 07:00:00;;;;;;;7.43;2.38;;;23.30;43.50;;;;;;4956915;29;20047;-60
2021/04/30 07:02:26;;;;;;;6.40;2.55;;;23.30;43.50;;;;;;4956688;29;20374;-61
2021/04/30 07:04:55;;;;;;;7.05;2.03;;;23.30;43.50;;;;;;4957039;29;20114;-60
2021/04/30 07:07:21;;;;;;;5.28;2.40;;;23.30;43.50;;;;;;4956872;29;20054;-60
2021/04/30 07:09:48;;;;;;;6.72;2.70;;;23.30;43.50;;;;;;4956414;29;20389;-60
2021/04/30 07:12:15;;;;;;;6.40;2.30;;;23.30;43.50;;;;;;4956957;29;20076;-60
2021/04/30 07:14:41;;;;;;;7.97;2.30;;;23.40;43.50;;;;;;4939344;29;20474;-61
2021/04/30 07:17:07;;;;;;;5.75;2.17;;;23.40;43.50;;;;;;4954632;29;20043;-61
2021/04/30 07:19:33;;;;;;;8.55;2.35;;;23.40;43.50;;;;;;4931161;29;20031;-59
2021/04/30 07:21:59;;;;;;;7.50;2.67;;;23.40;43.50;;;;;;4956297;29;20091;-59
2021/04/30 07:24:25;;;;;;;6.35;3.00;;;23.50;43.60;;;;;;4939173;29;20058;-59
2021/04/30 07:26:51;;;;;;;7.70;3.08;;;23.40;43.50;;;;;;4955665;28;20043;-58
2021/04/30 07:29:17;;;;;;;8.50;3.40;;;23.40;43.40;;;;;;4956385;29;20462;-59
2021/04/30 07:31:43;;;;;;;6.82;2.45;;;23.40;43.30;;;;;;4956135;29;20042;-58
2021/04/30 07:34:09;;;;;;;7.93;2.70;;;23.40;43.30;;;;;;4956358;29;20031;-59
2021/04/30 07:36:35;;;;;;;6.78;2.47;;;23.40;43.40;;;;;;4956242;29;20031;-59
2021/04/30 07:39:02;;;;;;;6.85;2.42;;;23.40;43.30;;;;;;4956456;29;20047;-59
2021/04/30 07:41:28;;;;;;;8.45;2.75;;;23.40;43.20;;;;;;4938666;29;20043;-59
2021/04/30 07:43:54;;;;;;;15.65;9.27;;;23.50;43.20;;;;;;4956151;29;20035;-59
2021/04/30 07:46:20;;;;;;;12.85;8.35;;;23.50;43.10;;;;;;4956144;29;20035;-58
2021/04/30 07:48:47;;;;;;;13.27;8.27;;;23.50;43.00;;;;;;4955963;29;20042;-61
2021/04/30 07:51:13;;;;;;;109.78;98.20;;;23.50;43.10;;;;;;4955933;29;20493;-67
2021/04/30 07:53:40;;;;;;;33.33;28.35;;;23.50;43.10;;;;;;4939288;29;20035;-68
2021/04/30 07:56:06;;;;;;;30.98;26.40;;;23.50;42.90;;;;;;4956304;29;20556;-66
2021/04/30 07:58:32;;;;;;;46.85;41.60;;;23.50;42.90;;;;;;4939166;29;20035;-67
2021/04/30 08:00:59;;;;;;;40.58;33.92;;;23.50;42.90;;;;;;4956241;29;20462;-67
2021/04/30 08:03:25;;;;;;;16.67;11.93;;;23.50;42.90;;;;;;4956169;29;20043;-67
2021/04/30 08:05:52;;;;;;;11.25;6.80;;;23.50;42.80;;;;;;4938702;29;20058;-66
2021/04/30 08:08:18;;;;;;;7.00;4.65;;;23.50;42.90;;;;;;4938590;29;20140;-66
2021/04/30 08:10:45;;;;;;;7.82;4.40;;;23.50;42.90;;;;;;4938907;29;20044;-66
2021/04/30 08:13:11;;;;;;;7.22;3.03;;;23.50;42.80;;;;;;4955930;29;20098;-66
2021/04/30 08:15:37;;;;;;;4.82;2.65;;;23.50;42.80;;;;;;4955109;29;20512;-66
2021/04/30 08:18:04;;;;;;;7.97;2.20;;;23.50;42.80;;;;;;4954853;29;20047;-66
2021/04/30 08:20:30;;;;;;;7.95;2.97;;;23.60;43.50;;;;;;4955111;29;20115;-66
2021/04/30 08:22:56;;;;;;;18.15;16.25;;;23.60;42.90;;;;;;4954970;29;20035;-66
2021/04/30 08:25:23;;;;;;;27.50;23.83;;;23.60;42.80;;;;;;4937441;29;20384;-66
2021/04/30 08:27:49;;;;;;;9.38;5.13;;;23.70;42.70;;;;;;4954825;29;20039;-66
2021/04/30 08:30:16;;;;;;;8.85;6.10;;;23.60;42.60;;;;;;4937464;29;20093;-69
2021/04/30 08:32:42;;;;;;;10.52;6.40;;;23.60;44.40;;;;;;4953386;29;20043;-70
2021/04/30 08:35:08;;;;;;;11.63;4.63;;;23.70;43.20;;;;;;4953196;29;20042;-70
2021/04/30 08:37:34;;;;;;;4.78;3.28;;;23.70;42.90;;;;;;4950602;28;20780;-70
2021/04/30 08:40:01;;;;;;;5.45;2.58;;;23.70;42.80;;;;;;4933852;29;20044;-69
2021/04/30 08:42:27;;;;;;;6.93;2.35;;;23.70;42.80;;;;;;4933810;29;20036;-69
2021/04/30 08:44:54;;;;;;;7.13;2.80;;;23.80;42.70;;;;;;4933761;29;20123;-69
2021/04/30 08:47:21;;;;;;;7.80;2.47;;;23.80;42.60;;;;;;4933530;29;20334;-69
2021/04/30 08:49:52;;;;;;;6.22;2.42;;;23.80;42.70;;;;;;4933725;29;20032;-68
2021/04/30 08:52:19;;;;;;;;;;;23.80;42.70;;;;;;4917043;29;20051;-69
2021/04/30 08:54:49;;;;;;;7.85;4.20;;;23.90;43.00;;;;;;4933684;29;19942;-69
2021/04/30 08:57:21;;;;;;;22.85;20.45;;;24.00;42.60;;;;;;4916470;29;20040;-69
2021/04/30 08:59:47;;;;;;;24.05;21.52;;;24.10;42.60;;;;;;4933626;29;20482;-69
2021/04/30 09:02:13;;;;;;;14.95;11.73;;;24.20;42.40;;;;;;4933678;29;20111;-69
2021/04/30 09:04:41;;;;;;;8.43;6.10;;;24.20;42.20;;;;;;4917203;29;20039;-69
2021/04/30 09:07:15;;;;;;;7.65;4.25;;;24.30;41.80;;;;;;4916958;29;20039;-59
2021/04/30 09:09:57;;;;;;;8.38;3.85;;;24.40;41.40;;;;;;4934226;29;20047;-59
2021/04/30 09:12:24;;;;;;;8.70;2.90;;;24.40;41.30;;;;;;4934266;29;20059;-59
2021/04/30 09:14:51;;;;;;;3.72;2.20;;;24.50;41.00;;;;;;4885068;29;923670;-60
2021/04/30 09:17:17;;;;;;;7.07;2.33;;;24.50;41.00;;;;;;4933167;29;20107;-59
2021/04/30 09:19:47;;;;;;;7.47;3.13;;;24.50;41.00;;;;;;4935121;29;20510;-60
2021/04/30 09:22:25;;;;;;;45.88;41.13;;;24.60;40.50;;;;;;4935649;29;20063;-59
2021/04/30 09:24:56;;;;;;;12.48;10.73;;;24.60;40.80;;;;;;4935767;29;20035;-63
2021/04/30 09:27:41;;;;;;;30.00;21.20;;;24.60;40.80;;;;;;4935482;29;20036;-65
2021/04/30 09:30:26;;;;;;;7.78;3.95;;;24.60;41.20;;;;;;4935475;29;20538;-61
2021/04/30 09:33:04;;;;;;;8.98;3.33;;;24.70;41.20;;;;;;4935250;29;20040;-62
2021/04/30 09:35:32;;;;;;;6.13;2.63;;;24.50;40.90;;;;;;4935098;29;20050;-65
2021/04/30 09:37:58;;;;;;;6.25;3.05;;;24.50;41.30;;;;;;4934517;29;20051;-64
2021/04/30 09:40:30;;;;;;;5.45;2.00;;;24.50;41.20;;;;;;4934368;29;20040;-65
2021/04/30 09:43:08;;;;;;;6.05;2.45;;;24.50;40.40;;;;;;4934211;29;20043;-66
2021/04/30 09:45:35;;;;;;;8.52;2.17;;;24.50;40.50;;;;;;4934757;29;20045;-68
2021/04/30 09:48:06;;;;;;;12.55;7.65;;;24.40;40.20;;;;;;4935111;29;20513;-66
2021/04/30 09:50:33;;;;;;;;;;;24.30;40.60;;;;;;4939661;29;20042;-67
2021/04/30 09:53:02;;;;;;;5.32;2.70;;;24.20;40.60;;;;;;4921895;29;19917;-57
2021/04/30 09:55:45;;;;;;;7.73;1.90;;;24.20;40.80;;;;;;4939068;29;20406;-58
2021/04/30 09:58:26;;;;;;;7.47;1.63;;;24.30;41.30;;;;;;4938485;29;20123;-57
2021/04/30 10:01:01;;;;;;;4.60;1.63;;;24.40;41.60;;;;;;4921873;29;20044;-57
2021/04/30 10:03:34;;;;;;;6.55;1.70;;;24.50;42.00;;;;;;4938246;29;20050;-57
2021/04/30 10:06:19;;;;;;;4.70;2.00;;;24.60;42.30;;;;;;4922511;29;20059;-56
2021/04/30 10:09:04;;;;;;;3.75;1.50;;;24.70;42.40;;;;;;4938341;29;20083;-56
2021/04/30 10:11:32;;;;;;;6.20;1.30;;;24.70;42.30;;;;;;4938314;29;20119;-56
2021/04/30 10:14:00;;;;;;;7.68;1.50;;;24.80;42.00;;;;;;4921188;29;20082;-54
2021/04/30 10:16:26;;;;;;;2.85;1.50;;;24.80;42.20;;;;;;4938554;29;20036;-55
2021/04/30 10:18:52;;;;;;;3.35;1.25;;;24.80;42.20;;;;;;4905254;29;20075;-55
2021/04/30 10:21:19;;;;;;;3.95;0.98;;;24.90;42.10;;;;;;4938457;29;20382;-55
2021/04/30 10:23:51;;;;;;;4.03;1.20;;;24.90;41.80;;;;;;4938486;29;20040;-55
2021/04/30 10:26:19;;;;;;;4.03;1.30;;;24.90;42.00;;;;;;4937227;28;20040;-54
2021/04/30 10:28:55;;;;;;;7.38;1.50;;;24.90;41.80;;;;;;4918552;29;20050;-55
2021/04/30 10:31:36;;;;;;;5.22;1.30;;;24.90;41.70;;;;;;4918581;29;20043;-55
2021/04/30 10:34:26;;;;;;;6.47;2.47;;;25.00;42.00;;;;;;4935567;29;20123;-55
2021/04/30 10:36:54;;;;;;;;;;;25.00;42.00;;;;;;4936313;29;20087;-55
2021/04/30 10:39:28;;;;;;;5.45;1.48;;;25.10;42.00;;;;;;4935617;29;19994;-55
2021/04/30 10:41:55;;;;;;;1.73;1.10;;;25.20;41.40;;;;;;4935630;29;20118;-55
2021/04/30 10:44:28;;;;;;;3.03;1.15;;;25.20;41.00;;;;;;4935446;29;20036;-55
2021/04/30 10:47:12;;;;;;;75.93;68.22;;;25.20;40.50;;;;;;4935769;29;20051;-55
2021/04/30 10:49:38;;;;;;;31.90;28.60;;;25.30;40.70;;;;;;4935393;29;20035;-55
2021/04/30 10:52:08;;;;;;;12.07;6.30;;;25.30;41.10;;;;;;4935769;29;20437;-56
2021/04/30 10:54:41;;;;;;;9.23;4.93;;;25.30;41.70;;;;;;4935603;29;20043;-55
2021/04/30 10:57:13;;;;;;;8.77;4.10;;;25.30;41.90;;;;;;4935387;29;20039;-55
2021/04/30 10:59:39;;;;;;;7.63;3.70;;;25.30;41.90;;;;;;4935368;29;20122;-55
2021/04/30 11:02:21;;;;;;;5.95;3.13;;;25.30;41.90;;;;;;4934820;29;20147;-56
2021/04/30 11:05:06;;;;;;;8.10;2.90;;;25.40;42.30;;;;;;4934993;29;20031;-55
2021/04/30 11:07:49;;;;;;;3.50;2.60;;;25.50;42.60;;;;;;4935109;29;20044;-56
2021/04/30 11:10:21;;;;;;;6.93;3.00;;;25.50;42.70;;;;;;4934862;29;20036;-56
2021/04/30 11:13:03;;;;;;;84.40;75.60;;;25.60;42.40;;;;;;4935592;29;20048;-56
2021/04/30 11:15:46;;;;;;;56.15;50.28;;;25.60;42.00;;;;;;4915713;29;20131;-56
2021/04/30 11:18:21;;;;;;;38.03;33.92;;;25.70;41.60;;;;;;4916059;29;20059;-55
2021/04/30 11:21:09;;;;;;;26.27;23.48;;;25.70;41.40;;;;;;4915993;29;20274;-55
2021/04/30 11:23:35;;;;;;;12.48;6.13;;;25.80;41.40;;;;;;4916202;29;20048;-55
2021/04/30 11:26:05;;;;;;;3.90;2.60;;;25.80;40.30;;;;;;4898330;29;20513;-55
2021/04/30 11:28:31;;;;;;;5.57;2.35;;;25.80;40.10;;;;;;4915966;29;20044;-55
2021/04/30 11:31:11;;;;;;;3.30;1.38;;;25.80;40.10;;;;;;4915649;29;20036;-55
2021/04/30 11:33:42;;;;;;;3.85;1.55;;;25.90;39.20;;;;;;4915914;29;20094;-55
2021/04/30 11:36:12;;;;;;;6.07;1.20;;;25.90;39.20;;;;;;4915596;29;20070;-54
2021/04/30 11:38:42;;;;;;;3.38;1.27;;;25.90;38.70;;;;;;4916005;29;20036;-55
2021/04/30 11:41:10;;;;;;;2.90;1.20;;;25.90;38.40;;;;;;4915426;29;20543;-55
2021/04/30 11:43:39;;;;;;;3.55;1.00;;;26.00;38.30;;;;;;4915718;29;20048;-55
2021/04/30 11:46:06;;;;;;;4.18;1.23;;;26.00;37.90;;;;;;4915412;29;20406;-55
2021/04/30 11:48:33;;;;;;;3.72;1.30;;;26.00;37.20;;;;;;4915981;29;20051;-56
2021/04/30 11:51:05;;;;;;;6.88;1.55;;;26.00;37.60;;;;;;4915728;29;20363;-55
2021/04/30 11:53:32;;;;;;;7.70;1.73;;;26.10;37.50;;;;;;4915580;29;20028;-55
2021/04/30 11:55:59;;;;;;;4.18;1.88;;;26.10;37.80;;;;;;4898799;29;20043;-56
2021/04/30 11:58:45;;;;;;;6.43;1.63;;;26.10;38.00;;;;;;4915331;29;20044;-54
2021/04/30 12:01:15;;;;;;;8.73;1.67;;;26.10;38.20;;;;;;4915275;29;20510;-55
2021/04/30 12:03:41;;;;;;;7.45;1.90;;;26.10;38.00;;;;;;4898640;29;20507;-55
2021/04/30 12:06:13;;;;;;;12.57;1.77;;;26.10;38.30;;;;;;4898154;29;20119;-55
2021/04/30 12:08:40;;;;;;;18.45;2.42;;;26.10;38.20;;;;;;4898375;29;20510;-54
2021/04/30 12:11:06;;;;;;;9.15;2.45;;;26.10;38.40;;;;;;4898243;29;20044;-55
2021/04/30 12:13:38;;;;;;;10.23;2.20;;;26.10;38.40;;;;;;4914076;29;20056;-55
2021/04/30 12:16:18;;;;;;;10.05;2.25;;;26.10;38.50;;;;;;4897954;29;20494;-54
2021/04/30 12:18:45;;;;;;;8.30;1.90;;;26.00;38.50;;;;;;4898264;29;20040;-55
2021/04/30 12:21:11;;;;;;;10.57;2.10;;;26.00;38.40;;;;;;4915057;29;20059;-55
2021/04/30 12:23:38;;;;;;;8.30;2.10;;;26.00;38.60;;;;;;4915445;29;20036;-55
2021/04/30 12:26:04;;;;;;;15.65;2.53;;;26.00;38.80;;;;;;4914975;29;20036;-54
2021/04/30 12:28:35;;;;;;;23.63;2.85;;;26.10;39.10;;;;;;4914947;29;20096;-54
2021/04/30 12:31:06;;;;;;;14.55;3.30;;;26.00;39.20;;;;;;4914962;29;20498;-54
2021/04/30 12:33:37;;;;;;;13.52;2.53;;;26.00;39.30;;;;;;4914755;29;20131;-54
2021/04/30 12:36:13;;;;;;;;;;;26.00;39.40;;;;;;4898121;29;20116;-55
2021/04/30 12:38:41;;;;;;;10.88;2.72;;;26.00;39.60;;;;;;4914510;29;19918;-55
2021/04/30 12:41:12;;;;;;;7.60;1.77;;;26.10;39.40;;;;;;4914440;29;20040;-55
2021/04/30 12:43:39;;;;;;;10.27;1.70;;;26.10;39.30;;;;;;4914851;29;20091;-55
2021/04/30 12:46:23;;;;;;;10.00;2.70;;;26.10;39.40;;;;;;4897688;29;20041;-55
2021/04/30 12:48:55;;;;;;;7.95;2.30;;;26.00;39.60;;;;;;4914386;29;20557;-55
2021/04/30 12:51:29;;;;;;;10.43;1.90;;;26.00;39.90;;;;;;4914542;29;20071;-55